Time;durP1;ratioP1;P1;durP2;ratioP2;P2;SDS_P1;SDS_P2;PMS_P1;PMS_P2;Temp;Humidity;BMP_temperature;BMP_pressure;BME280_temperature;BME280_humidity;BME280_pressure;Samples;Min_cycle;Max_cycle;Signal;HPM_P1;HPM_P2
2023/12/16 00:00:15;;;;;;;12.98;5.10;;;;;;;;;;4996658;28;20820;-61
2023/12/16 00:02:41;;;;;;;14.53;5.47;;;;;;;;;;4999950;28;20809;-61
2023/12/16 00:05:06;;;;;;;17.90;5.90;;;;;;;;;;5000684;28;20424;-62
2023/12/16 00:07:32;;;;;;;13.27;5.47;;;;;;;;;;5000241;28;20401;-61
2023/12/16 00:09:57;;;;;;;16.15;6.05;;;;;;;;;;5019248;28;21196;-61
2023/12/16 00:12:22;;;;;;;18.13;6.70;;;;;;;;;;5019712;28;20391;-61
2023/12/16 00:14:47;;;;;;;18.57;7.37;;;;;;;;;;5018459;28;20399;-61
2023/12/16 00:17:13;;;;;;;17.63;8.07;;;;;;;;;;4998529;28;20474;-61
2023/12/16 00:19:38;;;;;;;17.10;7.70;;;;;;;;;;4992254;28;20404;-61
2023/12/16 00:22:03;;;;;;;19.37;8.10;;;;;;;;;;4994914;28;20514;-61
2023/12/16 00:24:28;;;;;;;19.08;8.20;;;;;;;;;;5000368;28;20510;-61
2023/12/16 00:26:54;;;;;;;19.37;8.20;;;;;;;;;;5000399;28;20490;-61
2023/12/16 00:29:19;;;;;;;20.53;8.47;;;;;;;;;;4999274;28;20950;-61
2023/12/16 00:31:45;;;;;;;18.80;8.30;;;;;;;;;;5000009;28;20551;-61
2023/12/16 00:34:10;;;;;;;20.80;8.40;;;;;;;;;;5008158;28;21320;-61
2023/12/16 00:36:35;;;;;;;19.57;8.43;;;;;;;;;;5000370;28;20393;-61
2023/12/16 00:39:01;;;;;;;18.07;8.30;;;;;;;;;;4992518;28;20450;-62
2023/12/16 00:41:26;;;;;;;20.67;8.07;;;;;;;;;;4992307;28;20935;-61
2023/12/16 00:43:51;;;;;;;18.23;7.82;;;;;;;;;;4992360;28;20408;-61
2023/12/16 00:46:17;;;;;;;18.33;7.63;;;;;;;;;;4998414;28;20408;-61
2023/12/16 00:48:43;;;;;;;20.90;7.97;;;;;;;;;;4994734;28;20459;-61
2023/12/16 00:51:08;;;;;;;15.90;7.03;;;;;;;;;;5033939;28;20925;-61
2023/12/16 00:53:33;;;;;;;16.83;6.63;;;;;;;;;;5018786;28;20399;-61
2023/12/16 00:55:58;;;;;;;16.93;6.67;;;;;;;;;;5003596;28;21043;-61
2023/12/16 00:58:24;;;;;;;17.10;6.13;;;;;;;;;;4999034;28;20865;-61
2023/12/16 01:00:49;;;;;;;16.25;5.85;;;;;;;;;;5006234;28;20473;-61
2023/12/16 01:03:15;;;;;;;17.00;6.57;;;;;;;;;;5027379;28;20406;-61
2023/12/16 01:05:40;;;;;;;15.80;5.70;;;;;;;;;;5028978;28;20418;-61
2023/12/16 01:08:05;;;;;;;17.42;5.32;;;;;;;;;;5028537;28;20508;-63
2023/12/16 01:10:31;;;;;;;15.47;4.90;;;;;;;;;;5029786;28;20403;-61
2023/12/16 01:12:56;;;;;;;13.70;4.60;;;;;;;;;;5028718;28;20399;-61
2023/12/16 01:15:21;;;;;;;15.93;4.87;;;;;;;;;;5028917;28;20394;-62
2023/12/16 01:17:47;;;;;;;15.13;4.90;;;;;;;;;;5028943;28;20482;-61
2023/12/16 01:20:12;;;;;;;13.15;4.15;;;;;;;;;;5031235;28;20399;-62
2023/12/16 01:22:37;;;;;;;11.87;4.50;;;;;;;;;;5033433;28;20401;-61
2023/12/16 01:25:03;;;;;;;11.57;3.97;;;;;;;;;;5031913;28;20418;-62
2023/12/16 01:27:28;;;;;;;13.33;4.10;;;;;;;;;;5031858;28;20438;-61
2023/12/16 01:29:53;;;;;;;13.77;3.60;;;;;;;;;;5033541;28;20403;-61
2023/12/16 01:32:19;;;;;;;14.17;3.60;;;;;;;;;;5032394;28;20403;-61
2023/12/16 01:34:44;;;;;;;11.80;3.63;;;;;;;;;;5032770;28;20448;-61
2023/12/16 01:37:10;;;;;;;10.97;3.10;;;;;;;;;;5032430;28;20478;-61
2023/12/16 01:39:35;;;;;;;10.47;2.97;;;;;;;;;;5032160;28;20419;-61
2023/12/16 01:42:00;;;;;;;12.17;3.30;;;;;;;;;;5032217;28;20490;-64
2023/12/16 01:44:25;;;;;;;15.93;3.67;;;;;;;;;;5033186;28;20391;-61
2023/12/16 01:46:51;;;;;;;14.07;3.37;;;;;;;;;;5032561;28;20477;-61
2023/12/16 01:49:16;;;;;;;15.03;3.73;;;;;;;;;;5042268;28;20483;-61
2023/12/16 01:51:43;;;;;;;8.82;2.63;;;;;;;;;;5032823;28;20538;-61
2023/12/16 01:54:08;;;;;;;9.75;3.00;;;;;;;;;;5032254;28;20523;-62
2023/12/16 01:56:33;;;;;;;12.70;3.00;;;;;;;;;;5032141;28;20950;-61
2023/12/16 01:58:58;;;;;;;10.40;2.50;;;;;;;;;;5032138;28;20419;-61
2023/12/16 02:01:24;;;;;;;9.23;2.75;;;;;;;;;;5031592;28;20464;-61
2023/12/16 02:03:50;;;;;;;10.37;3.20;;;;;;;;;;5023767;28;20409;-61
2023/12/16 02:06:15;;;;;;;12.40;3.45;;;;;;;;;;5031951;28;20391;-61
2023/12/16 02:08:41;;;;;;;10.63;2.90;;;;;;;;;;5030266;28;20478;-61
2023/12/16 02:11:10;;;;;;;10.23;2.60;;;;;;;;;;5031741;28;20403;-61
2023/12/16 02:13:36;;;;;;;9.57;2.72;;;;;;;;;;5024187;28;20480;-61
2023/12/16 02:16:01;;;;;;;12.57;3.40;;;;;;;;;;5011351;28;20500;-61
2023/12/16 02:18:26;;;;;;;11.03;3.10;;;;;;;;;;5020990;28;20395;-61
2023/12/16 02:20:51;;;;;;;11.83;2.93;;;;;;;;;;5032449;28;20976;-61
2023/12/16 02:23:17;;;;;;;13.93;3.67;;;;;;;;;;5031279;28;20399;-61
2023/12/16 02:25:42;;;;;;;13.10;3.53;;;;;;;;;;5032481;28;20402;-61
2023/12/16 02:28:08;;;;;;;9.70;3.13;;;;;;;;;;5031201;28;20457;-62
2023/12/16 02:30:33;;;;;;;11.17;2.80;;;;;;;;;;5028962;28;20454;-61
2023/12/16 02:32:59;;;;;;;11.87;3.07;;;;;;;;;;5031953;28;20998;-61
2023/12/16 02:35:24;;;;;;;11.90;2.70;;;;;;;;;;5031442;28;20418;-61
2023/12/16 02:37:49;;;;;;;10.47;3.00;;;;;;;;;;5030746;28;20930;-61
2023/12/16 02:40:14;;;;;;;13.33;3.07;;;;;;;;;;5031865;28;20445;-61
2023/12/16 02:42:40;;;;;;;11.30;2.90;;;;;;;;;;5031937;28;20387;-61
2023/12/16 02:45:05;;;;;;;12.27;3.10;;;;;;;;;;5031020;28;20494;-63
2023/12/16 02:47:31;;;;;;;12.55;3.08;;;;;;;;;;5031034;28;20791;-61
2023/12/16 02:49:56;;;;;;;10.80;2.83;;;;;;;;;;5027038;28;20448;-61
2023/12/16 02:52:21;;;;;;;13.50;3.83;;;;;;;;;;5030992;28;20894;-61
2023/12/16 02:54:46;;;;;;;10.67;3.37;;;;;;;;;;5030623;28;20399;-61
2023/12/16 02:57:12;;;;;;;10.57;3.00;;;;;;;;;;5030917;28;20437;-61
2023/12/16 02:59:37;;;;;;;11.53;3.13;;;;;;;;;;5030331;28;20935;-61
2023/12/16 03:02:02;;;;;;;13.43;2.73;;;;;;;;;;5031135;28;20858;-61
2023/12/16 03:04:27;;;;;;;10.93;2.88;;;;;;;;;;5031568;28;20803;-61
2023/12/16 03:06:53;;;;;;;12.97;3.40;;;;;;;;;;5031012;28;20778;-61
2023/12/16 03:09:18;;;;;;;11.33;3.10;;;;;;;;;;5030573;28;20885;-61
2023/12/16 03:11:43;;;;;;;11.57;3.30;;;;;;;;;;5031477;28;20465;-61
2023/12/16 03:14:08;;;;;;;12.67;3.20;;;;;;;;;;5030247;28;20444;-62
2023/12/16 03:16:34;;;;;;;12.40;3.60;;;;;;;;;;5031063;28;20890;-61
2023/12/16 03:18:59;;;;;;;11.83;3.40;;;;;;;;;;5030487;28;20399;-61
2023/12/16 03:21:25;;;;;;;12.70;3.57;;;;;;;;;;5030356;28;20550;-61
2023/12/16 03:23:50;;;;;;;15.23;3.80;;;;;;;;;;5031242;28;20409;-61
2023/12/16 03:26:15;;;;;;;15.13;4.23;;;;;;;;;;5030048;28;20406;-61
2023/12/16 03:28:40;;;;;;;11.07;3.40;;;;;;;;;;5030602;28;20496;-61
2023/12/16 03:31:06;;;;;;;14.60;4.07;;;;;;;;;;5015925;28;20424;-62
2023/12/16 03:33:31;;;;;;;15.27;4.30;;;;;;;;;;5008632;28;20886;-61
2023/12/16 03:35:56;;;;;;;12.93;3.93;;;;;;;;;;4994229;28;20416;-61
2023/12/16 03:38:21;;;;;;;14.73;4.50;;;;;;;;;;4997614;28;20416;-61
2023/12/16 03:40:47;;;;;;;14.45;4.10;;;;;;;;;;5000499;28;20404;-61
2023/12/16 03:43:13;;;;;;;14.73;4.67;;;;;;;;;;5001003;28;20409;-61
2023/12/16 03:45:38;;;;;;;15.00;4.07;;;;;;;;;;5001061;28;20385;-61
2023/12/16 03:48:03;;;;;;;12.13;4.10;;;;;;;;;;4995234;28;20417;-61
2023/12/16 03:50:28;;;;;;;14.17;4.20;;;;;;;;;;5001083;28;20862;-61
2023/12/16 03:52:54;;;;;;;15.33;4.30;;;;;;;;;;4998143;28;20435;-61
2023/12/16 03:55:19;;;;;;;15.23;4.23;;;;;;;;;;4992830;28;20697;-61
2023/12/16 03:57:44;;;;;;;13.03;4.33;;;;;;;;;;4992171;28;20396;-61
2023/12/16 04:00:10;;;;;;;14.17;4.23;;;;;;;;;;4995263;28;20401;-61
2023/12/16 04:02:35;;;;;;;13.50;4.63;;;;;;;;;;5000194;28;20887;-61
2023/12/16 04:05:00;;;;;;;13.87;4.00;;;;;;;;;;5000230;28;20827;-63
2023/12/16 04:07:26;;;;;;;13.38;4.57;;;;;;;;;;5019548;28;21077;-61
2023/12/16 04:09:51;;;;;;;15.80;4.70;;;;;;;;;;5019616;28;20430;-61
2023/12/16 04:12:17;;;;;;;16.20;4.87;;;;;;;;;;5017578;28;21373;-61
2023/12/16 04:14:42;;;;;;;14.23;4.10;;;;;;;;;;5000544;28;20400;-61
2023/12/16 04:17:07;;;;;;;13.90;4.65;;;;;;;;;;4991839;28;21040;-61
2023/12/16 04:19:32;;;;;;;13.80;4.43;;;;;;;;;;4992165;28;20436;-61
2023/12/16 04:22:00;;;;;;;14.57;4.75;;;;;;;;;;4992528;28;21015;-61
2023/12/16 04:24:25;;;;;;;15.70;4.03;;;;;;;;;;4999599;28;20868;-61
2023/12/16 04:26:50;;;;;;;11.80;4.27;;;;;;;;;;5000818;28;20412;-61
2023/12/16 04:29:15;;;;;;;13.93;4.55;;;;;;;;;;4999585;28;20461;-61
2023/12/16 04:31:41;;;;;;;14.13;4.30;;;;;;;;;;4999362;28;20914;-61
2023/12/16 04:34:06;;;;;;;15.00;4.77;;;;;;;;;;5000075;28;20431;-62
2023/12/16 04:36:31;;;;;;;14.17;4.30;;;;;;;;;;4999401;28;20416;-61
2023/12/16 04:38:57;;;;;;;12.73;4.23;;;;;;;;;;4995235;28;20454;-61
2023/12/16 04:41:22;;;;;;;14.23;4.87;;;;;;;;;;4992134;28;20412;-61
2023/12/16 04:43:47;;;;;;;11.67;4.27;;;;;;;;;;4992368;28;21056;-61
2023/12/16 04:46:12;;;;;;;12.40;4.37;;;;;;;;;;4997257;28;20420;-61
2023/12/16 04:48:38;;;;;;;12.83;4.80;;;;;;;;;;4994751;28;20483;-61
2023/12/16 04:51:04;;;;;;;16.90;4.53;;;;;;;;;;4999313;28;20931;-61
2023/12/16 04:53:30;;;;;;;13.95;4.32;;;;;;;;;;4999452;28;20412;-61
2023/12/16 04:55:55;;;;;;;14.03;4.00;;;;;;;;;;5000301;28;20447;-61
2023/12/16 04:58:20;;;;;;;15.37;4.40;;;;;;;;;;4998487;28;21019;-61
2023/12/16 05:00:45;;;;;;;13.07;4.07;;;;;;;;;;4998190;28;20408;-61
2023/12/16 05:03:12;;;;;;;17.40;4.10;;;;;;;;;;4991576;28;20844;-61
2023/12/16 05:05:37;;;;;;;14.02;4.45;;;;;;;;;;4991954;28;20772;-61
2023/12/16 05:08:02;;;;;;;15.80;4.47;;;;;;;;;;4993919;28;20413;-62
2023/12/16 05:10:27;;;;;;;16.53;4.37;;;;;;;;;;5000040;28;20452;-61
2023/12/16 05:12:53;;;;;;;15.17;4.70;;;;;;;;;;5028445;28;20995;-61
2023/12/16 05:15:18;;;;;;;14.23;4.37;;;;;;;;;;4999540;28;20437;-64
2023/12/16 05:17:43;;;;;;;15.00;4.07;;;;;;;;;;5018072;28;21076;-61
2023/12/16 05:20:09;;;;;;;12.67;4.67;;;;;;;;;;5018427;28;20431;-61
2023/12/16 05:22:34;;;;;;;13.10;4.23;;;;;;;;;;5004753;28;20447;-61
2023/12/16 05:25:01;;;;;;;14.47;4.70;;;;;;;;;;4992522;28;20799;-61
2023/12/16 05:27:26;;;;;;;14.05;4.20;;;;;;;;;;5010024;28;20718;-61
2023/12/16 05:29:51;;;;;;;13.70;4.17;;;;;;;;;;5011548;28;20398;-61
2023/12/16 05:32:17;;;;;;;16.73;4.43;;;;;;;;;;5018286;28;20403;-61
2023/12/16 05:34:42;;;;;;;13.07;4.17;;;;;;;;;;5018812;28;20399;-61
2023/12/16 05:37:07;;;;;;;15.17;4.63;;;;;;;;;;5005864;28;20420;-62
2023/12/16 05:39:32;;;;;;;13.53;4.63;;;;;;;;;;4999115;28;20422;-61
2023/12/16 05:41:58;;;;;;;14.87;4.37;;;;;;;;;;4999238;28;20405;-61
2023/12/16 05:44:23;;;;;;;15.02;4.90;;;;;;;;;;4998267;28;20401;-61
2023/12/16 05:46:48;;;;;;;14.50;4.50;;;;;;;;;;4994576;28;20876;-61
2023/12/16 05:49:13;;;;;;;17.00;4.83;;;;;;;;;;4985602;28;20412;-61
2023/12/16 05:51:39;;;;;;;15.23;4.37;;;;;;;;;;4991653;28;20401;-61
2023/12/16 05:54:05;;;;;;;15.75;4.95;;;;;;;;;;4995873;28;20408;-61
2023/12/16 05:56:30;;;;;;;17.80;5.30;;;;;;;;;;4999566;28;20401;-61
2023/12/16 05:58:55;;;;;;;15.80;4.43;;;;;;;;;;5033110;28;20418;-61
2023/12/16 06:01:20;;;;;;;18.53;4.90;;;;;;;;;;5008371;28;20434;-61
2023/12/16 06:03:47;;;;;;;15.35;4.28;;;;;;;;;;5000031;28;20406;-61
2023/12/16 06:06:13;;;;;;;17.10;4.80;;;;;;;;;;5002443;28;20397;-61
2023/12/16 06:08:39;;;;;;;16.95;4.53;;;;;;;;;;4999335;28;20454;-61
2023/12/16 06:11:04;;;;;;;16.20;4.77;;;;;;;;;;4995393;28;20412;-61
2023/12/16 06:13:29;;;;;;;16.27;4.35;;;;;;;;;;4995208;28;20470;-61
2023/12/16 06:15:54;;;;;;;14.63;4.50;;;;;;;;;;5003999;28;21185;-61
2023/12/16 06:18:20;;;;;;;15.53;4.60;;;;;;;;;;5001650;28;20759;-61
2023/12/16 06:20:45;;;;;;;17.43;5.07;;;;;;;;;;5002794;28;20895;-61
2023/12/16 06:23:10;;;;;;;15.73;5.00;;;;;;;;;;5001809;28;20417;-61
2023/12/16 06:25:35;;;;;;;17.00;4.60;;;;;;;;;;5002815;28;20484;-61
2023/12/16 06:28:01;;;;;;;14.93;4.87;;;;;;;;;;5020462;28;20895;-62
2023/12/16 06:30:26;;;;;;;15.33;4.40;;;;;;;;;;5021668;28;20387;-61
2023/12/16 06:32:51;;;;;;;15.60;4.70;;;;;;;;;;5014621;28;20841;-61
2023/12/16 06:35:16;;;;;;;15.67;4.50;;;;;;;;;;5000138;28;20396;-61
2023/12/16 06:37:42;;;;;;;17.27;4.40;;;;;;;;;;4994099;28;20396;-61
2023/12/16 06:40:07;;;;;;;15.73;4.43;;;;;;;;;;5001481;28;20419;-62
2023/12/16 06:42:33;;;;;;;17.37;5.33;;;;;;;;;;5002745;28;20405;-61
2023/12/16 06:44:58;;;;;;;17.70;5.27;;;;;;;;;;5001944;28;20872;-61
2023/12/16 06:47:23;;;;;;;18.30;4.70;;;;;;;;;;5001649;28;20441;-61
2023/12/16 06:49:49;;;;;;;13.70;4.30;;;;;;;;;;4997027;28;20434;-61
2023/12/16 06:52:15;;;;;;;15.80;4.70;;;;;;;;;;5001326;28;20408;-61
2023/12/16 06:54:40;;;;;;;20.48;4.80;;;;;;;;;;4997571;28;20437;-61
2023/12/16 06:57:06;;;;;;;15.20;4.47;;;;;;;;;;4993569;28;20749;-63
2023/12/16 06:59:32;;;;;;;16.67;4.70;;;;;;;;;;4992607;28;20726;-62
2023/12/16 07:01:57;;;;;;;16.75;5.18;;;;;;;;;;4999395;28;20582;-61
2023/12/16 07:04:24;;;;;;;13.50;4.82;;;;;;;;;;5000491;28;20534;-62
2023/12/16 07:06:49;;;;;;;15.73;4.80;;;;;;;;;;5001749;28;20915;-61
2023/12/16 07:09:14;;;;;;;20.03;5.57;;;;;;;;;;5001056;28;20397;-62
2023/12/16 07:11:40;;;;;;;18.40;4.83;;;;;;;;;;5001644;28;20396;-62
2023/12/16 07:14:05;;;;;;;18.08;4.80;;;;;;;;;;5002058;28;20397;-61
2023/12/16 07:16:31;;;;;;;17.50;5.20;;;;;;;;;;4998041;28;20433;-61
2023/12/16 07:18:56;;;;;;;16.70;4.90;;;;;;;;;;4994041;28;20413;-61
2023/12/16 07:21:21;;;;;;;16.50;5.03;;;;;;;;;;5017189;28;20431;-61
2023/12/16 07:23:47;;;;;;;18.03;5.13;;;;;;;;;;5030863;28;20815;-61
2023/12/16 07:26:12;;;;;;;17.73;5.10;;;;;;;;;;5030406;28;20863;-62
2023/12/16 07:28:38;;;;;;;16.15;4.90;;;;;;;;;;5030652;28;20399;-61
2023/12/16 07:31:03;;;;;;;15.67;4.60;;;;;;;;;;5030506;28;20398;-62
2023/12/16 07:33:28;;;;;;;18.47;5.10;;;;;;;;;;5030705;28;20426;-62
2023/12/16 07:35:53;;;;;;;19.38;5.32;;;;;;;;;;5030931;28;20819;-61
2023/12/16 07:38:19;;;;;;;16.73;7.10;;;;;;;;;;5029229;28;20778;-61
2023/12/16 07:40:44;;;;;;;18.30;6.23;;;;;;;;;;5029753;28;20395;-62
2023/12/16 07:43:09;;;;;;;14.00;4.40;;;;;;;;;;5029735;28;20508;-62
2023/12/16 07:45:36;;;;;;;15.07;4.80;;;;;;;;;;5029397;28;20399;-61
2023/12/16 07:48:01;;;;;;;15.32;4.63;;;;;;;;;;5024655;28;20426;-62
2023/12/16 07:50:26;;;;;;;14.97;4.60;;;;;;;;;;5030711;28;20894;-61
2023/12/16 07:52:51;;;;;;;15.87;4.50;;;;;;;;;;5030576;28;20466;-61
2023/12/16 07:55:17;;;;;;;16.57;4.50;;;;;;;;;;5029093;28;20766;-60
2023/12/16 07:57:42;;;;;;;15.27;4.63;;;;;;;;;;5032309;28;20407;-61
2023/12/16 08:00:09;;;;;;;18.50;4.80;;;;;;;;;;5040121;28;20835;-62
2023/12/16 08:02:35;;;;;;;14.68;4.40;;;;;;;;;;5041674;28;20392;-61
2023/12/16 08:05:00;;;;;;;14.05;4.00;;;;;;;;;;5050180;28;20440;-64
2023/12/16 08:07:26;;;;;;;17.48;4.60;;;;;;;;;;5049553;28;20405;-62
2023/12/16 08:09:51;;;;;;;13.37;4.70;;;;;;;;;;5049718;28;20409;-62
2023/12/16 08:12:16;;;;;;;18.37;4.60;;;;;;;;;;5037670;28;20399;-61
2023/12/16 08:14:41;;;;;;;16.80;4.60;;;;;;;;;;5027990;28;20391;-61
2023/12/16 08:17:07;;;;;;;15.73;4.20;;;;;;;;;;5029653;28;20419;-62
2023/12/16 08:19:32;;;;;;;17.27;4.30;;;;;;;;;;5029021;28;20399;-61
2023/12/16 08:22:00;;;;;;;14.77;4.10;;;;;;;;;;5037796;28;21089;-61
2023/12/16 08:24:25;;;;;;;16.67;4.53;;;;;;;;;;5021269;28;20399;-62
2023/12/16 08:26:50;;;;;;;18.75;4.80;;;;;;;;;;5029816;28;20399;-62
2023/12/16 08:29:16;;;;;;;17.87;4.80;;;;;;;;;;5028124;28;20960;-61
2023/12/16 08:31:41;;;;;;;16.73;3.90;;;;;;;;;;5030001;28;20451;-61
2023/12/16 08:34:06;;;;;;;15.87;4.53;;;;;;;;;;5029483;28;20407;-60
2023/12/16 08:36:31;;;;;;;14.57;4.00;;;;;;;;;;5029587;28;20817;-61
2023/12/16 08:38:57;;;;;;;19.45;4.47;;;;;;;;;;5029329;28;20482;-60
2023/12/16 08:41:22;;;;;;;17.60;4.53;;;;;;;;;;5027848;28;20432;-61
2023/12/16 08:43:47;;;;;;;17.77;4.73;;;;;;;;;;5029049;28;20468;-61
2023/12/16 08:46:13;;;;;;;17.80;4.93;;;;;;;;;;5029602;28;20498;-61
2023/12/16 08:48:40;;;;;;;14.33;4.30;;;;;;;;;;5024289;28;20399;-60
2023/12/16 08:51:05;;;;;;;17.80;4.93;;;;;;;;;;5028994;28;20402;-62
2023/12/16 08:53:31;;;;;;;18.50;3.87;;;;;;;;;;5029893;28;20748;-61
2023/12/16 08:55:56;;;;;;;17.07;3.83;;;;;;;;;;5029298;28;20901;-60
2023/12/16 08:58:21;;;;;;;16.30;4.13;;;;;;;;;;5026676;28;20395;-61
2023/12/16 09:00:48;;;;;;;17.77;4.23;;;;;;;;;;5029633;28;20395;-60
2023/12/16 09:03:14;;;;;;;13.32;4.20;;;;;;;;;;5029100;28;20481;-61
2023/12/16 09:05:39;;;;;;;16.05;4.20;;;;;;;;;;5029141;28;20432;-61
2023/12/16 09:08:05;;;;;;;16.25;4.70;;;;;;;;;;5028517;28;20422;-61
2023/12/16 09:10:30;;;;;;;17.57;4.13;;;;;;;;;;5029556;28;20399;-61
2023/12/16 09:12:56;;;;;;;14.10;4.10;;;;;;;;;;5029283;28;20391;-60
2023/12/16 09:15:21;;;;;;;14.85;5.35;;;;;;;;;;5028523;28;20466;-61
2023/12/16 09:17:47;;;;;;;15.27;5.70;;;;;;;;;;5028806;28;20410;-61
2023/12/16 09:20:13;;;;;;;17.00;4.80;;;;;;;;;;5028697;28;20422;-61
2023/12/16 09:22:38;;;;;;;16.77;5.47;;;;;;;;;;5029162;28;20906;-61
2023/12/16 09:25:04;;;;;;;21.20;7.07;;;;;;;;;;5028831;28;20395;-61
2023/12/16 09:27:29;;;;;;;16.77;5.20;;;;;;;;;;5029044;28;20387;-61
2023/12/16 09:29:55;;;;;;;17.17;6.23;;;;;;;;;;5028934;28;20418;-60
2023/12/16 09:32:20;;;;;;;18.63;4.47;;;;;;;;;;5028293;28;20399;-61
2023/12/16 09:34:45;;;;;;;19.90;5.23;;;;;;;;;;5029672;28;20403;-61
2023/12/16 09:37:11;;;;;;;16.27;4.40;;;;;;;;;;5028668;28;20431;-61
2023/12/16 09:39:36;;;;;;;19.83;4.78;;;;;;;;;;5029562;28;20407;-61
2023/12/16 09:42:02;;;;;;;17.37;4.70;;;;;;;;;;5032868;28;20407;-62
2023/12/16 09:44:28;;;;;;;18.15;5.07;;;;;;;;;;5032964;28;20487;-60
2023/12/16 09:46:53;;;;;;;16.70;4.60;;;;;;;;;;5047466;28;20497;-61
2023/12/16 09:49:19;;;;;;;19.58;5.88;;;;;;;;;;5027165;28;20407;-61
2023/12/16 09:51:44;;;;;;;16.53;5.67;;;;;;;;;;5032273;28;20436;-61
2023/12/16 09:54:09;;;;;;;19.43;5.90;;;;;;;;;;5030855;28;20418;-62
2023/12/16 09:56:35;;;;;;;23.70;5.97;;;;;;;;;;5032652;28;20391;-61
2023/12/16 09:59:00;;;;;;;19.20;5.97;;;;;;;;;;5030231;28;20423;-61
2023/12/16 10:01:25;;;;;;;20.67;6.97;;;;;;;;;;5039128;28;20388;-61
2023/12/16 10:03:50;;;;;;;21.40;6.60;;;;;;;;;;5048720;28;20906;-61
2023/12/16 10:06:16;;;;;;;22.13;7.35;;;;;;;;;;5031955;28;20407;-61
2023/12/16 10:08:41;;;;;;;22.57;6.33;;;;;;;;;;5031109;28;20403;-62
2023/12/16 10:11:06;;;;;;;20.03;6.37;;;;;;;;;;5031271;28;20406;-63
2023/12/16 10:13:32;;;;;;;20.53;8.53;;;;;;;;;;5032153;28;20394;-61
2023/12/16 10:15:58;;;;;;;28.13;12.07;;;;;;;;;;5032043;28;20430;-61
2023/12/16 10:18:23;;;;;;;24.10;7.87;;;;;;;;;;5031097;28;20410;-61
2023/12/16 10:20:48;;;;;;;26.93;9.13;;;;;;;;;;5032413;28;20403;-61
2023/12/16 10:23:14;;;;;;;31.90;9.80;;;;;;;;;;5031619;28;20402;-61
2023/12/16 10:25:40;;;;;;;26.40;9.23;;;;;;;;;;5032085;28;20410;-61
2023/12/16 10:28:05;;;;;;;23.05;8.77;;;;;;;;;;5030758;28;20407;-61
2023/12/16 10:30:30;;;;;;;20.60;7.13;;;;;;;;;;5031687;28;20399;-62
2023/12/16 10:32:56;;;;;;;22.23;8.37;;;;;;;;;;5032079;28;20469;-61
2023/12/16 10:35:23;;;;;;;23.10;8.37;;;;;;;;;;5031228;28;20759;-61
2023/12/16 10:37:49;;;;;;;23.88;8.45;;;;;;;;;;5029949;28;20407;-61
2023/12/16 10:40:14;;;;;;;24.85;8.02;;;;;;;;;;5046727;28;20403;-61
2023/12/16 10:42:40;;;;;;;27.30;9.80;;;;;;;;;;5031046;28;20801;-61
2023/12/16 10:45:06;;;;;;;27.87;9.30;;;;;;;;;;5031718;28;20426;-62
2023/12/16 10:47:31;;;;;;;27.08;9.27;;;;;;;;;;5031315;28;20475;-61
2023/12/16 10:49:57;;;;;;;24.77;7.60;;;;;;;;;;5025198;28;20403;-61
2023/12/16 10:52:23;;;;;;;25.15;8.50;;;;;;;;;;5030595;28;20391;-61
2023/12/16 10:54:48;;;;;;;24.70;8.23;;;;;;;;;;5031558;28;20411;-61
2023/12/16 10:57:13;;;;;;;25.93;8.97;;;;;;;;;;5037919;28;20403;-61
2023/12/16 10:59:40;;;;;;;26.33;9.67;;;;;;;;;;5029008;28;20483;-61
2023/12/16 11:02:06;;;;;;;22.23;8.87;;;;;;;;;;5031252;28;20407;-61
2023/12/16 11:04:32;;;;;;;25.55;8.90;;;;;;;;;;5030015;28;20390;-61
2023/12/16 11:07:01;;;;;;;25.80;9.43;;;;;;;;;;5031650;28;20456;-61
2023/12/16 11:09:26;;;;;;;26.80;8.80;;;;;;;;;;5030420;28;20886;-61
2023/12/16 11:11:51;;;;;;;24.80;9.50;;;;;;;;;;5030946;28;20418;-61
2023/12/16 11:14:17;;;;;;;26.25;9.63;;;;;;;;;;5029533;28;20450;-61
2023/12/16 11:16:49;;;;;;;25.17;8.33;;;;;;;;;;5029891;28;20876;-61
2023/12/16 11:19:14;;;;;;;23.27;9.25;;;;;;;;;;5029759;28;20407;-61
2023/12/16 11:21:40;;;;;;;23.47;8.87;;;;;;;;;;5029899;28;20427;-61
2023/12/16 11:24:06;;;;;;;26.50;9.48;;;;;;;;;;5029733;28;20758;-61
2023/12/16 11:26:31;;;;;;;22.97;9.63;;;;;;;;;;5030882;28;20391;-61
2023/12/16 11:28:56;;;;;;;22.60;9.60;;;;;;;;;;5029798;28;20485;-61
2023/12/16 11:31:22;;;;;;;25.63;9.80;;;;;;;;;;5030959;28;20387;-61
2023/12/16 11:33:47;;;;;;;22.30;9.40;;;;;;;;;;5030784;28;20948;-61
2023/12/16 11:36:14;;;;;;;23.57;10.10;;;;;;;;;;5030652;28;20754;-61
2023/12/16 11:38:43;;;;;;;27.10;10.27;;;;;;;;;;5028050;28;20403;-61
2023/12/16 11:41:10;;;;;;;26.65;10.48;;;;;;;;;;5030227;28;20439;-61
2023/12/16 11:43:45;;;;;;;25.83;9.93;;;;;;;;;;5030147;28;20403;-61
2023/12/16 11:46:30;;;;;;;25.20;11.50;;;;;;;;;;5029997;28;20490;-61
2023/12/16 11:48:56;;;;;;;21.30;10.37;;;;;;;;;;5025557;28;20448;-61
2023/12/16 11:51:21;;;;;;;25.30;10.88;;;;;;;;;;5030269;28;20441;-60
2023/12/16 11:53:46;;;;;;;27.13;11.73;;;;;;;;;;5030253;28;20400;-61
2023/12/16 11:56:12;;;;;;;25.20;10.23;;;;;;;;;;5028477;28;20403;-61
2023/12/16 11:58:37;;;;;;;26.03;11.03;;;;;;;;;;5028162;28;20399;-61
2023/12/16 12:01:02;;;;;;;23.80;10.90;;;;;;;;;;5029588;28;20407;-62
2023/12/16 12:03:27;;;;;;;22.52;10.98;;;;;;;;;;5029923;28;20407;-61
2023/12/16 12:05:53;;;;;;;21.77;9.57;;;;;;;;;;5029932;28;20396;-61
2023/12/16 12:08:18;;;;;;;22.77;11.63;;;;;;;;;;5035155;28;20447;-62
2023/12/16 12:10:44;;;;;;;23.03;9.63;;;;;;;;;;5041684;28;20397;-61
2023/12/16 12:13:09;;;;;;;22.73;10.10;;;;;;;;;;5036824;28;20429;-61
2023/12/16 12:15:34;;;;;;;23.27;10.80;;;;;;;;;;5037876;28;20882;-61
2023/12/16 12:17:59;;;;;;;22.13;10.67;;;;;;;;;;5029329;28;20427;-61
2023/12/16 12:20:25;;;;;;;22.77;11.23;;;;;;;;;;5030110;28;20442;-61
2023/12/16 12:22:50;;;;;;;23.73;10.80;;;;;;;;;;5028443;28;20809;-61
2023/12/16 12:25:16;;;;;;;25.08;11.43;;;;;;;;;;5029626;28;20414;-61
2023/12/16 12:27:42;;;;;;;22.10;10.75;;;;;;;;;;5028857;28;20411;-61
2023/12/16 12:30:07;;;;;;;25.67;11.57;;;;;;;;;;5029182;28;20402;-61
2023/12/16 12:32:33;;;;;;;32.83;16.40;;;;;;;;;;5029994;28;20379;-61
2023/12/16 12:35:01;;;;;;;43.38;23.42;;;;;;;;;;5029719;28;20407;-61
2023/12/16 12:37:33;;;;;;;24.90;11.10;;;;;;;;;;5029133;28;20402;-61
2023/12/16 12:39:59;;;;;;;23.23;12.48;;;;;;;;;;5029770;28;20384;-61
2023/12/16 12:42:24;;;;;;;24.13;13.13;;;;;;;;;;5028797;28;20398;-61
2023/12/16 12:44:50;;;;;;;20.93;10.70;;;;;;;;;;5029941;28;20414;-61
2023/12/16 12:47:25;;;;;;;21.80;11.30;;;;;;;;;;5029579;28;20406;-61
2023/12/16 12:49:51;;;;;;;22.02;11.27;;;;;;;;;;5024093;28;20407;-61
2023/12/16 12:52:16;;;;;;;22.50;13.23;;;;;;;;;;5029352;28;20783;-61
2023/12/16 12:54:42;;;;;;;24.93;11.77;;;;;;;;;;5029951;28;20399;-61
2023/12/16 12:57:07;;;;;;;23.35;12.05;;;;;;;;;;5028155;28;20391;-61
2023/12/16 12:59:33;;;;;;;24.60;11.33;;;;;;;;;;5029029;28;20415;-61
2023/12/16 13:01:58;;;;;;;24.58;11.18;;;;;;;;;;5029525;28;20470;-61
2023/12/16 13:04:23;;;;;;;21.97;14.37;;;;;;;;;;5028920;28;20387;-61
2023/12/16 13:06:48;;;;;;;25.30;11.03;;;;;;;;;;5029589;28;20403;-61
2023/12/16 13:09:14;;;;;;;26.53;11.47;;;;;;;;;;5028574;28;20918;-61
2023/12/16 13:11:39;;;;;;;20.27;10.87;;;;;;;;;;5029218;28;20415;-61
2023/12/16 13:14:05;;;;;;;18.92;11.30;;;;;;;;;;5029934;28;20402;-61
2023/12/16 13:16:30;;;;;;;20.07;11.23;;;;;;;;;;5033590;28;20399;-61
2023/12/16 13:18:55;;;;;;;19.90;11.40;;;;;;;;;;5032464;28;20410;-61
2023/12/16 13:21:21;;;;;;;22.80;12.90;;;;;;;;;;5032964;28;20422;-61
2023/12/16 13:23:46;;;;;;;22.23;12.00;;;;;;;;;;5033738;28;20414;-61
2023/12/16 13:26:12;;;;;;;21.73;12.10;;;;;;;;;;5032809;28;20433;-61
2023/12/16 13:28:40;;;;;;;22.27;11.63;;;;;;;;;;5032354;28;20976;-61
2023/12/16 13:31:05;;;;;;;18.45;11.25;;;;;;;;;;5032515;28;20399;-61
2023/12/16 13:33:31;;;;;;;21.47;11.57;;;;;;;;;;5033452;28;20890;-61
2023/12/16 13:35:56;;;;;;;19.80;11.70;;;;;;;;;;5033039;28;20403;-61
2023/12/16 13:38:21;;;;;;;23.33;11.60;;;;;;;;;;5031652;28;20403;-61
2023/12/16 13:40:46;;;;;;;22.93;13.13;;;;;;;;;;5033420;28;20407;-61
2023/12/16 13:43:12;;;;;;;22.67;11.67;;;;;;;;;;5032296;28;20399;-61
2023/12/16 13:45:37;;;;;;;20.17;12.80;;;;;;;;;;5032564;28;20417;-61
2023/12/16 13:48:03;;;;;;;19.97;11.30;;;;;;;;;;5027580;28;20419;-61
2023/12/16 13:50:28;;;;;;;20.33;12.63;;;;;;;;;;5032679;28;20880;-61
2023/12/16 13:52:53;;;;;;;20.50;13.90;;;;;;;;;;5032697;28;20399;-61
2023/12/16 13:55:18;;;;;;;20.10;11.93;;;;;;;;;;5032784;28;20798;-61
2023/12/16 13:57:44;;;;;;;22.37;14.07;;;;;;;;;;5031709;28;20403;-61
2023/12/16 14:00:10;;;;;;;21.67;15.20;;;;;;;;;;5031808;28;20417;-61
2023/12/16 14:02:35;;;;;;;20.42;13.70;;;;;;;;;;5013247;28;20475;-61
2023/12/16 14:05:01;;;;;;;19.50;11.50;;;;;;;;;;5024013;28;20937;-65
2023/12/16 14:07:27;;;;;;;19.27;13.57;;;;;;;;;;5031550;28;20842;-62
2023/12/16 14:09:52;;;;;;;18.87;12.17;;;;;;;;;;5032945;28;20410;-61
2023/12/16 14:12:18;;;;;;;22.80;15.90;;;;;;;;;;5032047;28;20958;-61
2023/12/16 14:14:43;;;;;;;22.27;15.87;;;;;;;;;;5032343;28;20456;-61
2023/12/16 14:17:08;;;;;;;21.77;12.38;;;;;;;;;;5031989;28;21075;-61